Weather Models
Both GFS & NAM
00z 06z 12z 18z
24hr Precip
00z 06z 12z 18z
36hr Simulated radar
00z 06z 12z 18z
SKEWT Soundings
00z 12z
Current Conditions (Updated 7:40pm on 12/5/16)
Temperature
 46°
-0.60
54°  
42°  
0
10
20
30
40
50
60
70
80
90
100
Dew Point
33°
40°  
28°  
-20
-10
0
10
20
30
40
50
60
70
80
Wind Chill
43°
52°  
36°  
-20
-10
0
10
20
30
40
50
60
70
80
Wind Chill
Humidity
60%
83% 
50% 
0
10
20
30
40
50
60
70
80
90
100
Barometer
30.10
   Rising
30.13  
30.01  
28.00
28.30
28.60
28.90
29.20
29.50
29.80
30.10
30.40
30.70
31.00
Temperature
Dew Point
Humidity
Pressure
Wind
6mph
WNW
Daily Rain
.00
.05
.10
.15
.20
.25
.30
.35
.40
.45
.50
Rain Today
 0.15" 
Month Rain
0.00
0.20
0.40
0.60
0.80
1.00
1.20
1.40
1.60
1.80
2.00
Month Rain
 0.89" 
Year Rain
0.00
5.00
10.00
15.00
20.00
25.00
30.00
35.00
40.00
45.00
50.00
Year Rain
 35.74" 
Sun & Moon Data
Sunrise 7:07am
Sunset 4:35pm
Moonrise 11:27am
Moonset 10:26pm
Moon % 36%
Other Rain Data
Past Hour 0.00 Past 24 Hours 0.15
Past 3 Hours 0.00 Past 7 Days 0.94
Past 6 Hours 0.00
Cloud Height
3276


Current Front Map
Current Satellite map
7 Day Forecast
NWS Forecast for Philadelphia PA
National Weather Service Forecast for: Philadelphia PA
Issued by: National Weather Service Philadelphia, PA
Updated: 6:35 pm EST Dec 5, 2016

Philadelphia
 
Tonight

Tonight: Mostly cloudy, with a low around 35. Northwest wind 5 to 7 mph becoming north after midnight.
Mostly Cloudy

Tuesday

Tuesday: Rain likely, mainly after 2pm.  Cloudy, with a high near 45. East wind 5 to 10 mph.  Chance of precipitation is 70%. New precipitation amounts between a tenth and quarter of an inch possible.
Slight Chance
Rain then
Rain Likely
Tuesday
Night
Tuesday Night: Rain, mainly before 3am.  Low around 42. North wind 7 to 10 mph.  Chance of precipitation is 100%. New precipitation amounts between a quarter and half of an inch possible.
Rain

Wednesday

Wednesday: A chance of showers, mainly before 7am.  Cloudy, then gradually becoming mostly sunny, with a high near 50. Northwest wind around 7 mph.  Chance of precipitation is 30%. New precipitation amounts of less than a tenth of an inch possible.
Chance
Showers then
Partly Sunny
Wednesday
Night
Wednesday Night: Mostly cloudy, with a low around 37. Northwest wind around 5 mph becoming calm  in the evening.
Mostly Cloudy

Thursday

Thursday: A slight chance of showers.  Mostly cloudy, with a high near 47. Chance of precipitation is 20%.
Slight Chance
Showers
Thursday
Night
Thursday Night: Partly cloudy, with a low around 30.
Partly Cloudy

Friday

Friday: Mostly sunny, with a high near 39.
Mostly Sunny

Friday
Night
Friday Night: Mostly clear, with a low around 26.
Mostly Clear

Lo 35 °F Hi 45 °F Lo 42 °F Hi 50 °F Lo 37 °F Hi 47 °F Lo 30 °F Hi 39 °F Lo 26 °F

 

Tonight
 
Mostly cloudy, with a low around 35. Northwest wind 5 to 7 mph becoming north after midnight.
Tuesday
 
Rain likely, mainly after 2pm. Cloudy, with a high near 45. East wind 5 to 10 mph. Chance of precipitation is 70%. New precipitation amounts between a tenth and quarter of an inch possible.
Tuesday Night
 
Rain, mainly before 3am. Low around 42. North wind 7 to 10 mph. Chance of precipitation is 100%. New precipitation amounts between a quarter and half of an inch possible.
Wednesday
 
A chance of showers, mainly before 7am. Cloudy, then gradually becoming mostly sunny, with a high near 50. Northwest wind around 7 mph. Chance of precipitation is 30%. New precipitation amounts of less than a tenth of an inch possible.
Wednesday Night
 
Mostly cloudy, with a low around 37. Northwest wind around 5 mph becoming calm in the evening.
Thursday
 
A slight chance of showers. Mostly cloudy, with a high near 47. Chance of precipitation is 20%.
Thursday Night
 
Partly cloudy, with a low around 30.
Friday
 
Mostly sunny, with a high near 39.
Friday Night
 
Mostly clear, with a low around 26.
Saturday
 
Sunny, with a high near 38.
Saturday Night
 
Partly cloudy, with a low around 26.
Sunday
 
Mostly cloudy, with a high near 42.
Sunday Night
 
A chance of showers. Mostly cloudy, with a low around 32. Chance of precipitation is 30%.
Monday
 
A chance of showers. Mostly cloudy, with a high near 47. Chance of precipitation is 30%.

 

Forecast from NOAA-NWS for Philadelphia PA.

Area Weather Current Conditions
Nearby METAR Reports

KPHL - Philadelphia, Pennsylvania
Updated: Mon, 05-Dec-2016 6:54pm EST
Mostly Cloudy
Mostly Cloudy
 Wind from W
Wind: W 7 mph , 11 km/h
Temperature: 45°F , 7°C
Wind Chill: 41°F , 5°C
Dew Point: 34°F , 1°C
Humidity: 66%
Barometer: 30.08 inHg , 1018.6 hPa
Clouds: Mostly Cloudy
Visibility: 10 miles , 16 km
Cloud details: Mostly Cloudy 28000 ft
2016/12/05 23:54 KPHL 052354Z 26006KT 10SM BKN280 07/01 A3008 RMK AO2 SLP184 T00720011 10106 20072 53014
KMPO - Mt. Pocono, Pennsylvania
Updated: Mon, 05-Dec-2016 6:53pm EST
Clear
Clear
 Wind from WNW
Wind: WNW 6 mph , 9 km/h
Temperature: 34°F , 1°C
Wind Chill: 29°F , -2°C
Dew Point: 28°F , -2°C
Humidity: 81%
Barometer: 29.99 inHg , 1015.6 hPa
Clouds: Clear
Visibility: 10 miles , 16 km
2016/12/05 23:53 KMPO 052353Z AUTO 30005KT 10SM CLR 01/M02 A2999 RMK AO2 SLP175 T00061017 10039 21011 51012
 
KACY - Atlantic City, New Jersey
Updated: Mon, 05-Dec-2016 6:54pm EST
Clear
Clear
 Wind from NW
Wind: NW 3 mph , 6 km/h
Temperature: 39°F , 4°C
Dew Point: 34°F , 1°C
Humidity: 81%
Barometer: 30.06 inHg , 1017.9 hPa
Clouds: Clear
Visibility: 10 miles , 16 km
2016/12/05 23:54 KACY 052354Z 31003KT 10SM CLR 04/01 A3006 RMK AO2 SLP181 T00390011 10106 20033 52016
KMIV - Millville, New Jersey
Updated: Mon, 05-Dec-2016 6:54pm EST
Clear
Clear
 Wind from calm
Wind: Calm
Temperature: 37°F , 3°C
Dew Point: 37°F , 3°C
Humidity: 100%
Barometer: 30.07 inHg , 1018.3 hPa
Clouds: Clear
Visibility: 10 miles , 16 km
2016/12/05 23:54 KMIV 052354Z AUTO 00000KT 10SM CLR 03/03 A3007 RMK AO2 SLP183 T00330028 10106 20022 53015
 
KWWD - Wildwood, New Jersey
Updated: Mon, 05-Dec-2016 5:56pm EST
NOT Current
Clear
Clear
 Wind from NNW
Wind: NNW 5 mph , 7 km/h
Temperature: 46°F , 8°C
Wind Chill: 44°F , 7°C
Dew Point: 37°F , 3°C
Humidity: 71%
Barometer: 30.05 inHg , 1017.6 hPa
Clouds: Clear
Visibility: 10 miles , 16 km
2016/12/05 22:56 KWWD 052256Z AUTO 34004KT 10SM CLR 08/03 A3005 RMK AO2 SLP179 T00780033 $
KDOV - Dover Afb, Delaware
Updated: Mon, 05-Dec-2016 6:58pm EST
Clear
Clear
 Wind from calm
Wind: Calm
Temperature: 41°F , 5°C
Dew Point: 39°F , 4°C
Humidity: 93%
Barometer: 30.06 inHg , 1017.9 hPa
Clouds: Clear
Visibility: 10 miles , 16 km
2016/12/05 23:58 KDOV 052358Z AUTO 00000KT 10SM CLR 05/04 A3006 RMK AO2 SLP183 T00540039 10113 20048 52015 $
Severe Weather Map
Recent Forum Post
[Philadelphia] 2016 -2017 Winter snow forecast by JC December 01, 2016, 04:56:31 AM
[Philadelphia] Winter forecast 2016-2017 by xyonist November 30, 2016, 01:14:08 PM
[Philadelphia] 102.7 last Saturday by JC August 20, 2016, 03:26:22 AM
[Philadelphia] 2015 -2016 Winter snow forecast by JC April 19, 2016, 09:42:40 AM
[Philadelphia] Latest Models on Weekend Storm (Photos) by JC January 23, 2016, 12:01:03 PM
[Philadelphia] Possible large snow storm for end of week ? by JC January 21, 2016, 09:17:47 AM
[Philadelphia] El Nino! by vicente6 September 16, 2015, 01:57:08 AM
[Philadelphia] Early prediction for this winter? by xyonist February 19, 2015, 06:27:46 PM